sensor_id;sensor_type;location;lat;lon;timestamp;temperature;humidity
15143;DHT22;7672;50.834;6.286;2022-11-22T00:00:39;10.00;99.90
15143;DHT22;7672;50.834;6.286;2022-11-22T00:03:07;10.00;99.90
15143;DHT22;7672;50.834;6.286;2022-11-22T00:05:34;10.00;99.90
15143;DHT22;7672;50.834;6.286;2022-11-22T00:08:01;10.00;99.90
15143;DHT22;7672;50.834;6.286;2022-11-22T00:10:29;10.00;99.90
15143;DHT22;7672;50.834;6.286;2022-11-22T00:12:55;10.00;99.90
15143;DHT22;7672;50.834;6.286;2022-11-22T00:15:22;10.10;99.90
15143;DHT22;7672;50.834;6.286;2022-11-22T00:17:49;10.10;99.90
15143;DHT22;7672;50.834;6.286;2022-11-22T00:20:16;10.10;99.90
15143;DHT22;7672;50.834;6.286;2022-11-22T00:22:43;10.10;99.90
15143;DHT22;7672;50.834;6.286;2022-11-22T00:25:11;10.20;99.90
15143;DHT22;7672;50.834;6.286;2022-11-22T00:27:39;10.20;99.90
15143;DHT22;7672;50.834;6.286;2022-11-22T00:30:06;10.20;99.90
15143;DHT22;7672;50.834;6.286;2022-11-22T00:32:33;10.20;99.90
15143;DHT22;7672;50.834;6.286;2022-11-22T00:35:00;10.20;99.90
15143;DHT22;7672;50.834;6.286;2022-11-22T00:37:27;10.20;99.90
15143;DHT22;7672;50.834;6.286;2022-11-22T00:39:54;10.30;99.90
15143;DHT22;7672;50.834;6.286;2022-11-22T00:42:20;10.20;99.90
15143;DHT22;7672;50.834;6.286;2022-11-22T00:44:47;10.20;99.90
15143;DHT22;7672;50.834;6.286;2022-11-22T00:47:14;10.20;99.90
15143;DHT22;7672;50.834;6.286;2022-11-22T00:49:41;10.10;99.90
15143;DHT22;7672;50.834;6.286;2022-11-22T00:52:07;10.10;99.90
15143;DHT22;7672;50.834;6.286;2022-11-22T00:54:34;10.10;99.90
15143;DHT22;7672;50.834;6.286;2022-11-22T00:57:01;10.10;99.90
15143;DHT22;7672;50.834;6.286;2022-11-22T00:59:28;10.10;99.90
15143;DHT22;7672;50.834;6.286;2022-11-22T01:01:55;10.00;99.90
15143;DHT22;7672;50.834;6.286;2022-11-22T01:04:22;10.00;99.90
15143;DHT22;7672;50.834;6.286;2022-11-22T01:06:49;10.00;99.90
15143;DHT22;7672;50.834;6.286;2022-11-22T01:09:19;10.00;99.90
15143;DHT22;7672;50.834;6.286;2022-11-22T01:11:48;10.00;99.90
15143;DHT22;7672;50.834;6.286;2022-11-22T01:14:16;10.00;99.90
15143;DHT22;7672;50.834;6.286;2022-11-22T01:16:43;10.00;99.90
15143;DHT22;7672;50.834;6.286;2022-11-22T01:19:10;9.90;99.90
15143;DHT22;7672;50.834;6.286;2022-11-22T01:21:38;9.90;99.90
15143;DHT22;7672;50.834;6.286;2022-11-22T01:24:05;9.90;99.90
15143;DHT22;7672;50.834;6.286;2022-11-22T01:26:33;9.90;99.90
15143;DHT22;7672;50.834;6.286;2022-11-22T01:29:00;9.80;99.90
15143;DHT22;7672;50.834;6.286;2022-11-22T01:31:27;9.80;99.90
15143;DHT22;7672;50.834;6.286;2022-11-22T01:33:56;9.60;99.90
15143;DHT22;7672;50.834;6.286;2022-11-22T01:36:25;9.80;99.90
15143;DHT22;7672;50.834;6.286;2022-11-22T01:38:52;9.80;99.90
15143;DHT22;7672;50.834;6.286;2022-11-22T01:41:19;9.80;99.90
15143;DHT22;7672;50.834;6.286;2022-11-22T01:43:46;9.80;99.90
15143;DHT22;7672;50.834;6.286;2022-11-22T01:46:34;9.70;99.90
15143;DHT22;7672;50.834;6.286;2022-11-22T01:49:13;9.70;99.90
15143;DHT22;7672;50.834;6.286;2022-11-22T01:51:51;9.80;99.90
15143;DHT22;7672;50.834;6.286;2022-11-22T01:54:23;9.70;99.90
15143;DHT22;7672;50.834;6.286;2022-11-22T01:56:56;9.70;99.90
15143;DHT22;7672;50.834;6.286;2022-11-22T01:59:30;9.70;99.90
15143;DHT22;7672;50.834;6.286;2022-11-22T02:01:59;9.60;99.90
15143;DHT22;7672;50.834;6.286;2022-11-22T02:04:28;9.60;99.90
15143;DHT22;7672;50.834;6.286;2022-11-22T02:09:51;9.60;99.90
15143;DHT22;7672;50.834;6.286;2022-11-22T02:12:29;9.60;99.90
15143;DHT22;7672;50.834;6.286;2022-11-22T02:15:00;9.60;99.90
15143;DHT22;7672;50.834;6.286;2022-11-22T02:17:31;9.60;99.90
15143;DHT22;7672;50.834;6.286;2022-11-22T02:20:03;9.60;99.90
15143;DHT22;7672;50.834;6.286;2022-11-22T02:22:44;9.60;99.90
15143;DHT22;7672;50.834;6.286;2022-11-22T02:28:10;9.10;99.90
15143;DHT22;7672;50.834;6.286;2022-11-22T02:30:40;10.40;99.90
15143;DHT22;7672;50.834;6.286;2022-11-22T02:33:22;9.60;99.90
15143;DHT22;7672;50.834;6.286;2022-11-22T02:35:48;10.20;99.90
15143;DHT22;7672;50.834;6.286;2022-11-22T02:38:22;9.40;99.90
15143;DHT22;7672;50.834;6.286;2022-11-22T02:43:43;9.50;99.90
15143;DHT22;7672;50.834;6.286;2022-11-22T02:46:14;9.50;99.90
15143;DHT22;7672;50.834;6.286;2022-11-22T02:48:46;9.40;99.90
15143;DHT22;7672;50.834;6.286;2022-11-22T02:51:15;9.50;99.90
15143;DHT22;7672;50.834;6.286;2022-11-22T02:53:46;9.60;99.90
15143;DHT22;7672;50.834;6.286;2022-11-22T02:56:16;9.40;99.90
15143;DHT22;7672;50.834;6.286;2022-11-22T02:58:44;9.90;99.90
15143;DHT22;7672;50.834;6.286;2022-11-22T03:01:11;9.30;99.90
15143;DHT22;7672;50.834;6.286;2022-11-22T03:03:39;9.50;99.90
15143;DHT22;7672;50.834;6.286;2022-11-22T03:06:06;9.70;99.90
15143;DHT22;7672;50.834;6.286;2022-11-22T03:08:33;9.90;99.90
15143;DHT22;7672;50.834;6.286;2022-11-22T03:10:59;9.30;99.90
15143;DHT22;7672;50.834;6.286;2022-11-22T03:13:26;9.30;99.90
15143;DHT22;7672;50.834;6.286;2022-11-22T03:15:53;9.60;99.90
15143;DHT22;7672;50.834;6.286;2022-11-22T03:18:20;9.20;99.90
15143;DHT22;7672;50.834;6.286;2022-11-22T03:20:47;9.20;99.90
15143;DHT22;7672;50.834;6.286;2022-11-22T03:23:14;9.20;99.90
15143;DHT22;7672;50.834;6.286;2022-11-22T03:25:41;9.10;99.90
15143;DHT22;7672;50.834;6.286;2022-11-22T03:28:08;9.10;99.90
15143;DHT22;7672;50.834;6.286;2022-11-22T03:30:39;9.10;99.90
15143;DHT22;7672;50.834;6.286;2022-11-22T03:33:07;9.10;99.90
15143;DHT22;7672;50.834;6.286;2022-11-22T03:35:34;9.10;99.90
15143;DHT22;7672;50.834;6.286;2022-11-22T03:38:00;9.00;99.90
15143;DHT22;7672;50.834;6.286;2022-11-22T03:40:28;9.00;99.90
15143;DHT22;7672;50.834;6.286;2022-11-22T03:43:00;9.00;99.90
15143;DHT22;7672;50.834;6.286;2022-11-22T03:45:28;8.90;99.90
15143;DHT22;7672;50.834;6.286;2022-11-22T03:47:56;8.50;99.90
15143;DHT22;7672;50.834;6.286;2022-11-22T03:50:23;8.90;99.90
15143;DHT22;7672;50.834;6.286;2022-11-22T03:52:50;8.80;99.90
15143;DHT22;7672;50.834;6.286;2022-11-22T03:55:17;8.90;99.90
15143;DHT22;7672;50.834;6.286;2022-11-22T03:57:44;8.90;99.90
15143;DHT22;7672;50.834;6.286;2022-11-22T04:00:11;8.90;99.90
15143;DHT22;7672;50.834;6.286;2022-11-22T04:02:39;8.80;99.90
15143;DHT22;7672;50.834;6.286;2022-11-22T04:05:06;8.80;99.90
15143;DHT22;7672;50.834;6.286;2022-11-22T04:07:33;8.80;99.90
15143;DHT22;7672;50.834;6.286;2022-11-22T04:10:00;8.80;99.90
15143;DHT22;7672;50.834;6.286;2022-11-22T04:12:28;8.70;99.90
15143;DHT22;7672;50.834;6.286;2022-11-22T04:14:56;9.10;99.90
15143;DHT22;7672;50.834;6.286;2022-11-22T04:17:39;8.70;99.90
15143;DHT22;7672;50.834;6.286;2022-11-22T04:20:17;8.60;99.90
15143;DHT22;7672;50.834;6.286;2022-11-22T04:23:14;8.60;99.90
15143;DHT22;7672;50.834;6.286;2022-11-22T04:25:47;8.60;99.90
15143;DHT22;7672;50.834;6.286;2022-11-22T04:28:18;8.60;99.90
15143;DHT22;7672;50.834;6.286;2022-11-22T04:30:48;8.50;99.90
15143;DHT22;7672;50.834;6.286;2022-11-22T04:33:35;8.80;99.90
15143;DHT22;7672;50.834;6.286;2022-11-22T04:36:02;8.50;99.90
15143;DHT22;7672;50.834;6.286;2022-11-22T04:38:34;8.50;99.90
15143;DHT22;7672;50.834;6.286;2022-11-22T04:41:01;8.90;99.90
15143;DHT22;7672;50.834;6.286;2022-11-22T04:43:28;8.50;99.90
15143;DHT22;7672;50.834;6.286;2022-11-22T04:46:15;8.50;99.90
15143;DHT22;7672;50.834;6.286;2022-11-22T04:48:42;8.50;99.90
15143;DHT22;7672;50.834;6.286;2022-11-22T04:51:13;8.50;99.90
15143;DHT22;7672;50.834;6.286;2022-11-22T04:53:59;8.50;99.90
15143;DHT22;7672;50.834;6.286;2022-11-22T04:56:26;8.40;99.90
15143;DHT22;7672;50.834;6.286;2022-11-22T04:58:53;9.00;99.90
15143;DHT22;7672;50.834;6.286;2022-11-22T05:01:20;8.40;99.90
15143;DHT22;7672;50.834;6.286;2022-11-22T05:03:47;8.40;99.90
15143;DHT22;7672;50.834;6.286;2022-11-22T05:06:13;8.40;99.90
15143;DHT22;7672;50.834;6.286;2022-11-22T05:08:41;8.30;99.90
15143;DHT22;7672;50.834;6.286;2022-11-22T05:11:08;8.60;99.90
15143;DHT22;7672;50.834;6.286;2022-11-22T05:13:40;8.30;99.90
15143;DHT22;7672;50.834;6.286;2022-11-22T05:16:10;8.30;99.90
15143;DHT22;7672;50.834;6.286;2022-11-22T05:18:41;8.30;99.90
15143;DHT22;7672;50.834;6.286;2022-11-22T05:21:12;8.30;99.90
15143;DHT22;7672;50.834;6.286;2022-11-22T05:23:41;8.20;99.90
15143;DHT22;7672;50.834;6.286;2022-11-22T05:26:33;8.30;99.90
15143;DHT22;7672;50.834;6.286;2022-11-22T05:29:07;8.20;99.90
15143;DHT22;7672;50.834;6.286;2022-11-22T05:31:37;8.10;99.90
15143;DHT22;7672;50.834;6.286;2022-11-22T05:34:05;8.50;99.90
15143;DHT22;7672;50.834;6.286;2022-11-22T05:36:33;8.90;99.90
15143;DHT22;7672;50.834;6.286;2022-11-22T05:39:00;8.10;99.90
15143;DHT22;7672;50.834;6.286;2022-11-22T05:41:27;8.10;99.90
15143;DHT22;7672;50.834;6.286;2022-11-22T05:43:55;8.10;99.90
15143;DHT22;7672;50.834;6.286;2022-11-22T05:46:26;8.10;99.90
15143;DHT22;7672;50.834;6.286;2022-11-22T05:48:55;8.00;99.90
15143;DHT22;7672;50.834;6.286;2022-11-22T05:51:25;8.00;99.90
15143;DHT22;7672;50.834;6.286;2022-11-22T05:54:00;8.40;99.90
15143;DHT22;7672;50.834;6.286;2022-11-22T05:56:27;8.40;99.90
15143;DHT22;7672;50.834;6.286;2022-11-22T05:58:54;8.00;99.90
15143;DHT22;7672;50.834;6.286;2022-11-22T06:01:22;8.00;99.90
15143;DHT22;7672;50.834;6.286;2022-11-22T06:03:50;8.00;99.90
15143;DHT22;7672;50.834;6.286;2022-11-22T06:06:17;8.00;99.90
15143;DHT22;7672;50.834;6.286;2022-11-22T06:08:45;8.00;99.90
15143;DHT22;7672;50.834;6.286;2022-11-22T06:13:51;7.90;99.90
15143;DHT22;7672;50.834;6.286;2022-11-22T06:16:21;7.90;99.90
15143;DHT22;7672;50.834;6.286;2022-11-22T06:18:49;7.80;99.90
15143;DHT22;7672;50.834;6.286;2022-11-22T06:21:19;7.90;99.90
15143;DHT22;7672;50.834;6.286;2022-11-22T06:23:50;7.90;99.90
15143;DHT22;7672;50.834;6.286;2022-11-22T06:26:19;7.90;99.90
15143;DHT22;7672;50.834;6.286;2022-11-22T06:28:47;7.80;99.90
15143;DHT22;7672;50.834;6.286;2022-11-22T06:31:16;7.80;99.90
15143;DHT22;7672;50.834;6.286;2022-11-22T06:33:45;7.80;99.90
15143;DHT22;7672;50.834;6.286;2022-11-22T06:36:14;7.80;99.90
15143;DHT22;7672;50.834;6.286;2022-11-22T06:38:43;8.40;99.90
15143;DHT22;7672;50.834;6.286;2022-11-22T06:41:13;7.70;99.90
15143;DHT22;7672;50.834;6.286;2022-11-22T06:43:43;7.70;99.90
15143;DHT22;7672;50.834;6.286;2022-11-22T06:46:17;7.70;99.90
15143;DHT22;7672;50.834;6.286;2022-11-22T06:48:45;7.70;99.90
15143;DHT22;7672;50.834;6.286;2022-11-22T06:51:21;7.70;99.90
15143;DHT22;7672;50.834;6.286;2022-11-22T06:53:52;7.60;99.90
15143;DHT22;7672;50.834;6.286;2022-11-22T06:56:26;7.60;99.90
15143;DHT22;7672;50.834;6.286;2022-11-22T06:58:55;7.60;99.90
15143;DHT22;7672;50.834;6.286;2022-11-22T07:01:25;7.60;99.90
15143;DHT22;7672;50.834;6.286;2022-11-22T07:03:54;7.60;99.90
15143;DHT22;7672;50.834;6.286;2022-11-22T07:06:32;7.60;99.90
15143;DHT22;7672;50.834;6.286;2022-11-22T07:09:02;7.60;99.90
15143;DHT22;7672;50.834;6.286;2022-11-22T07:11:33;7.60;99.90
15143;DHT22;7672;50.834;6.286;2022-11-22T07:14:02;7.60;99.90
15143;DHT22;7672;50.834;6.286;2022-11-22T07:16:35;7.60;99.90
15143;DHT22;7672;50.834;6.286;2022-11-22T07:19:03;7.60;99.90
15143;DHT22;7672;50.834;6.286;2022-11-22T07:21:30;7.50;99.90
15143;DHT22;7672;50.834;6.286;2022-11-22T07:23:58;7.50;99.90
15143;DHT22;7672;50.834;6.286;2022-11-22T07:26:25;7.50;99.90
15143;DHT22;7672;50.834;6.286;2022-11-22T07:28:53;7.50;99.90
15143;DHT22;7672;50.834;6.286;2022-11-22T07:31:20;7.60;99.90
15143;DHT22;7672;50.834;6.286;2022-11-22T07:33:47;7.60;99.90
15143;DHT22;7672;50.834;6.286;2022-11-22T07:36:19;7.60;99.90
15143;DHT22;7672;50.834;6.286;2022-11-22T07:38:48;7.60;99.90
15143;DHT22;7672;50.834;6.286;2022-11-22T07:41:17;7.70;99.90
15143;DHT22;7672;50.834;6.286;2022-11-22T07:43:44;7.70;99.90
15143;DHT22;7672;50.834;6.286;2022-11-22T07:46:26;7.70;99.90
15143;DHT22;7672;50.834;6.286;2022-11-22T07:48:57;7.80;99.90
15143;DHT22;7672;50.834;6.286;2022-11-22T07:51:25;7.80;99.90
15143;DHT22;7672;50.834;6.286;2022-11-22T07:53:53;7.80;99.90
15143;DHT22;7672;50.834;6.286;2022-11-22T07:56:21;7.90;99.90
15143;DHT22;7672;50.834;6.286;2022-11-22T07:58:48;7.90;99.90
15143;DHT22;7672;50.834;6.286;2022-11-22T08:01:16;8.00;99.90
15143;DHT22;7672;50.834;6.286;2022-11-22T08:03:44;8.20;99.90
15143;DHT22;7672;50.834;6.286;2022-11-22T08:06:12;8.30;99.90
15143;DHT22;7672;50.834;6.286;2022-11-22T08:08:40;8.60;99.90
15143;DHT22;7672;50.834;6.286;2022-11-22T08:11:09;9.00;99.90
15143;DHT22;7672;50.834;6.286;2022-11-22T08:13:37;9.40;99.90
15143;DHT22;7672;50.834;6.286;2022-11-22T08:16:15;9.80;99.90
15143;DHT22;7672;50.834;6.286;2022-11-22T08:18:47;10.30;99.90
15143;DHT22;7672;50.834;6.286;2022-11-22T08:21:16;10.90;99.90
15143;DHT22;7672;50.834;6.286;2022-11-22T08:23:47;11.50;99.90
15143;DHT22;7672;50.834;6.286;2022-11-22T08:26:16;12.00;99.90
15143;DHT22;7672;50.834;6.286;2022-11-22T08:28:43;12.60;99.90
15143;DHT22;7672;50.834;6.286;2022-11-22T08:31:15;13.20;99.90
15143;DHT22;7672;50.834;6.286;2022-11-22T08:33:45;13.70;99.90
15143;DHT22;7672;50.834;6.286;2022-11-22T08:36:13;14.30;99.90
15143;DHT22;7672;50.834;6.286;2022-11-22T08:38:40;14.70;99.90
15143;DHT22;7672;50.834;6.286;2022-11-22T08:41:07;15.10;99.90
15143;DHT22;7672;50.834;6.286;2022-11-22T08:43:34;15.40;99.90
15143;DHT22;7672;50.834;6.286;2022-11-22T08:46:02;15.80;99.90
15143;DHT22;7672;50.834;6.286;2022-11-22T08:48:31;16.20;99.90
15143;DHT22;7672;50.834;6.286;2022-11-22T08:51:05;16.30;99.90
15143;DHT22;7672;50.834;6.286;2022-11-22T08:53:38;16.60;99.90
15143;DHT22;7672;50.834;6.286;2022-11-22T08:56:09;16.80;99.90
15143;DHT22;7672;50.834;6.286;2022-11-22T08:58:38;17.10;99.90
15143;DHT22;7672;50.834;6.286;2022-11-22T09:01:07;17.50;99.90
15143;DHT22;7672;50.834;6.286;2022-11-22T09:03:39;17.40;99.90
15143;DHT22;7672;50.834;6.286;2022-11-22T09:06:09;17.60;99.90
15143;DHT22;7672;50.834;6.286;2022-11-22T09:08:58;17.80;99.90
15143;DHT22;7672;50.834;6.286;2022-11-22T09:11:44;17.90;99.90
15143;DHT22;7672;50.834;6.286;2022-11-22T09:14:11;18.10;99.90
15143;DHT22;7672;50.834;6.286;2022-11-22T09:16:38;18.10;99.90
15143;DHT22;7672;50.834;6.286;2022-11-22T09:19:05;18.00;99.90
15143;DHT22;7672;50.834;6.286;2022-11-22T09:21:31;17.80;99.90
15143;DHT22;7672;50.834;6.286;2022-11-22T09:23:58;17.80;99.90
15143;DHT22;7672;50.834;6.286;2022-11-22T09:26:25;18.00;99.90
15143;DHT22;7672;50.834;6.286;2022-11-22T09:28:52;17.70;99.90
15143;DHT22;7672;50.834;6.286;2022-11-22T09:31:20;17.70;99.90
15143;DHT22;7672;50.834;6.286;2022-11-22T09:33:49;17.70;99.90
15143;DHT22;7672;50.834;6.286;2022-11-22T09:36:18;17.70;99.90
15143;DHT22;7672;50.834;6.286;2022-11-22T09:38:47;17.70;99.90
15143;DHT22;7672;50.834;6.286;2022-11-22T09:44:01;17.80;99.90
15143;DHT22;7672;50.834;6.286;2022-11-22T09:46:53;17.40;99.90
15143;DHT22;7672;50.834;6.286;2022-11-22T09:52:39;16.80;99.90
15143;DHT22;7672;50.834;6.286;2022-11-22T09:55:22;16.60;99.90
15143;DHT22;7672;50.834;6.286;2022-11-22T10:00:40;16.00;99.90
15143;DHT22;7672;50.834;6.286;2022-11-22T10:06:42;15.50;99.90
15143;DHT22;7672;50.834;6.286;2022-11-22T10:09:29;15.40;99.90
15143;DHT22;7672;50.834;6.286;2022-11-22T10:12:18;15.30;99.90
15143;DHT22;7672;50.834;6.286;2022-11-22T10:18:33;15.50;99.90
15143;DHT22;7672;50.834;6.286;2022-11-22T10:21:26;15.90;99.90
15143;DHT22;7672;50.834;6.286;2022-11-22T10:23:53;16.30;99.90
15143;DHT22;7672;50.834;6.286;2022-11-22T10:26:23;16.50;99.90
15143;DHT22;7672;50.834;6.286;2022-11-22T10:29:18;16.90;99.90
15143;DHT22;7672;50.834;6.286;2022-11-22T10:35:13;17.80;99.90
15143;DHT22;7672;50.834;6.286;2022-11-22T10:52:46;19.80;99.90
15143;DHT22;7672;50.834;6.286;2022-11-22T11:01:59;19.60;99.90
15143;DHT22;7672;50.834;6.286;2022-11-22T11:04:43;19.50;99.90
15143;DHT22;7672;50.834;6.286;2022-11-22T11:07:19;19.60;99.90
15143;DHT22;7672;50.834;6.286;2022-11-22T11:09:56;19.20;99.90
15143;DHT22;7672;50.834;6.286;2022-11-22T11:12:57;19.00;99.90
15143;DHT22;7672;50.834;6.286;2022-11-22T11:15:46;18.70;99.90
15143;DHT22;7672;50.834;6.286;2022-11-22T11:18:35;18.40;99.90
15143;DHT22;7672;50.834;6.286;2022-11-22T11:21:09;18.30;99.90
15143;DHT22;7672;50.834;6.286;2022-11-22T11:23:39;18.10;99.90
15143;DHT22;7672;50.834;6.286;2022-11-22T11:26:25;17.90;99.90
15143;DHT22;7672;50.834;6.286;2022-11-22T11:31:44;17.70;99.90
15143;DHT22;7672;50.834;6.286;2022-11-22T11:34:26;17.60;99.90
15143;DHT22;7672;50.834;6.286;2022-11-22T11:36:56;17.50;99.90
15143;DHT22;7672;50.834;6.286;2022-11-22T11:39:29;17.70;99.90
15143;DHT22;7672;50.834;6.286;2022-11-22T11:41:57;17.70;99.90
15143;DHT22;7672;50.834;6.286;2022-11-22T11:46:58;17.50;99.90
15143;DHT22;7672;50.834;6.286;2022-11-22T11:49:27;17.30;99.90
15143;DHT22;7672;50.834;6.286;2022-11-22T11:54:45;17.00;99.90
15143;DHT22;7672;50.834;6.286;2022-11-22T11:57:35;16.90;99.90
15143;DHT22;7672;50.834;6.286;2022-11-22T12:00:15;16.80;99.90
15143;DHT22;7672;50.834;6.286;2022-11-22T12:02:46;16.70;99.90
15143;DHT22;7672;50.834;6.286;2022-11-22T12:07:44;16.70;99.90
15143;DHT22;7672;50.834;6.286;2022-11-22T12:13:39;16.50;99.90
15143;DHT22;7672;50.834;6.286;2022-11-22T12:16:39;16.50;99.90
15143;DHT22;7672;50.834;6.286;2022-11-22T12:19:40;16.40;99.90
15143;DHT22;7672;50.834;6.286;2022-11-22T12:22:17;16.30;99.90
15143;DHT22;7672;50.834;6.286;2022-11-22T12:25:36;16.30;99.90
15143;DHT22;7672;50.834;6.286;2022-11-22T12:28:31;16.00;99.90
15143;DHT22;7672;50.834;6.286;2022-11-22T12:31:51;16.00;99.90
15143;DHT22;7672;50.834;6.286;2022-11-22T12:34:25;15.90;99.90
15143;DHT22;7672;50.834;6.286;2022-11-22T12:37:10;15.80;99.90
15143;DHT22;7672;50.834;6.286;2022-11-22T12:39:48;15.70;99.90
15143;DHT22;7672;50.834;6.286;2022-11-22T12:42:28;15.50;99.90
15143;DHT22;7672;50.834;6.286;2022-11-22T12:45:43;16.00;99.90
15143;DHT22;7672;50.834;6.286;2022-11-22T12:48:29;15.30;99.90
15143;DHT22;7672;50.834;6.286;2022-11-22T12:51:06;15.10;99.90
15143;DHT22;7672;50.834;6.286;2022-11-22T12:53:41;15.00;99.90
15143;DHT22;7672;50.834;6.286;2022-11-22T12:56:31;14.80;99.90
15143;DHT22;7672;50.834;6.286;2022-11-22T13:04:55;14.40;99.90
15143;DHT22;7672;50.834;6.286;2022-11-22T13:10:38;14.30;99.90
15143;DHT22;7672;50.834;6.286;2022-11-22T13:13:46;14.20;99.90
15143;DHT22;7672;50.834;6.286;2022-11-22T13:16:14;14.10;99.90
15143;DHT22;7672;50.834;6.286;2022-11-22T13:18:53;14.10;99.90
15143;DHT22;7672;50.834;6.286;2022-11-22T13:25:09;14.10;99.90
15143;DHT22;7672;50.834;6.286;2022-11-22T13:27:28;14.10;99.90
15143;DHT22;7672;50.834;6.286;2022-11-22T13:30:00;14.10;99.90
15143;DHT22;7672;50.834;6.286;2022-11-22T13:32:33;14.20;99.90
15143;DHT22;7672;50.834;6.286;2022-11-22T13:37:35;13.80;99.90
15143;DHT22;7672;50.834;6.286;2022-11-22T13:51:13;14.20;99.90
15143;DHT22;7672;50.834;6.286;2022-11-22T13:53:45;14.00;99.90
15143;DHT22;7672;50.834;6.286;2022-11-22T13:59:13;13.90;99.90
15143;DHT22;7672;50.834;6.286;2022-11-22T14:12:49;13.60;99.90
15143;DHT22;7672;50.834;6.286;2022-11-22T14:21:04;13.40;99.90
15143;DHT22;7672;50.834;6.286;2022-11-22T14:26:58;13.20;99.90
15143;DHT22;7672;50.834;6.286;2022-11-22T14:33:02;13.10;99.90
15143;DHT22;7672;50.834;6.286;2022-11-22T14:35:33;13.00;99.90
15143;DHT22;7672;50.834;6.286;2022-11-22T14:40:39;12.80;99.90
15143;DHT22;7672;50.834;6.286;2022-11-22T14:45:43;12.70;99.90
15143;DHT22;7672;50.834;6.286;2022-11-22T14:48:18;12.80;99.90
15143;DHT22;7672;50.834;6.286;2022-11-22T14:50:55;12.60;99.90
15143;DHT22;7672;50.834;6.286;2022-11-22T14:53:52;12.50;99.90
15143;DHT22;7672;50.834;6.286;2022-11-22T14:56:30;12.80;99.90
15143;DHT22;7672;50.834;6.286;2022-11-22T14:59:42;12.40;99.90
15143;DHT22;7672;50.834;6.286;2022-11-22T15:05:23;12.30;99.90
15143;DHT22;7672;50.834;6.286;2022-11-22T15:09:23;12.30;99.90
15143;DHT22;7672;50.834;6.286;2022-11-22T15:21:34;12.20;99.90
15143;DHT22;7672;50.834;6.286;2022-11-22T15:24:23;12.20;99.90
15143;DHT22;7672;50.834;6.286;2022-11-22T15:27:25;12.20;99.90
15143;DHT22;7672;50.834;6.286;2022-11-22T15:30:19;12.20;99.90
15143;DHT22;7672;50.834;6.286;2022-11-22T15:33:24;12.20;99.90
15143;DHT22;7672;50.834;6.286;2022-11-22T15:36:23;12.10;99.90
15143;DHT22;7672;50.834;6.286;2022-11-22T15:39:15;12.10;99.90
15143;DHT22;7672;50.834;6.286;2022-11-22T15:42:12;12.10;99.90
15143;DHT22;7672;50.834;6.286;2022-11-22T15:45:01;12.10;99.90
15143;DHT22;7672;50.834;6.286;2022-11-22T15:51:26;11.90;99.90
15143;DHT22;7672;50.834;6.286;2022-11-22T15:54:15;11.90;99.90
15143;DHT22;7672;50.834;6.286;2022-11-22T15:59:55;11.80;99.90
15143;DHT22;7672;50.834;6.286;2022-11-22T16:02:25;11.70;99.90
15143;DHT22;7672;50.834;6.286;2022-11-22T16:05:03;11.70;99.90
15143;DHT22;7672;50.834;6.286;2022-11-22T16:07:52;11.60;99.90
15143;DHT22;7672;50.834;6.286;2022-11-22T16:10:34;11.60;99.90
15143;DHT22;7672;50.834;6.286;2022-11-22T16:15:38;11.50;99.90
15143;DHT22;7672;50.834;6.286;2022-11-22T16:18:22;11.50;99.90
15143;DHT22;7672;50.834;6.286;2022-11-22T16:20:58;11.40;99.90
15143;DHT22;7672;50.834;6.286;2022-11-22T16:23:31;11.40;99.90
15143;DHT22;7672;50.834;6.286;2022-11-22T16:28:52;11.40;99.90
15143;DHT22;7672;50.834;6.286;2022-11-22T16:31:30;11.30;99.90
15143;DHT22;7672;50.834;6.286;2022-11-22T16:33:57;11.30;99.90
15143;DHT22;7672;50.834;6.286;2022-11-22T16:36:27;11.30;99.90
15143;DHT22;7672;50.834;6.286;2022-11-22T16:38:55;11.30;99.90
15143;DHT22;7672;50.834;6.286;2022-11-22T16:41:22;11.30;99.90
15143;DHT22;7672;50.834;6.286;2022-11-22T16:43:53;11.30;99.90
15143;DHT22;7672;50.834;6.286;2022-11-22T16:46:22;11.30;99.90
15143;DHT22;7672;50.834;6.286;2022-11-22T16:48:49;11.30;99.90
15143;DHT22;7672;50.834;6.286;2022-11-22T16:51:22;11.30;99.90
15143;DHT22;7672;50.834;6.286;2022-11-22T16:53:51;11.30;99.90
15143;DHT22;7672;50.834;6.286;2022-11-22T16:56:23;11.30;99.90
15143;DHT22;7672;50.834;6.286;2022-11-22T16:58:55;11.30;99.90
15143;DHT22;7672;50.834;6.286;2022-11-22T17:01:25;11.30;99.90
15143;DHT22;7672;50.834;6.286;2022-11-22T17:03:59;11.30;99.90
15143;DHT22;7672;50.834;6.286;2022-11-22T17:06:29;11.40;99.90
15143;DHT22;7672;50.834;6.286;2022-11-22T17:08:58;11.30;99.90
15143;DHT22;7672;50.834;6.286;2022-11-22T17:11:28;11.30;99.90
15143;DHT22;7672;50.834;6.286;2022-11-22T17:13:57;11.30;99.90
15143;DHT22;7672;50.834;6.286;2022-11-22T17:16:25;11.30;99.90
15143;DHT22;7672;50.834;6.286;2022-11-22T17:18:52;11.30;99.90
15143;DHT22;7672;50.834;6.286;2022-11-22T17:21:30;11.40;99.90
15143;DHT22;7672;50.834;6.286;2022-11-22T17:24:16;11.40;99.90
15143;DHT22;7672;50.834;6.286;2022-11-22T17:26:45;11.40;99.90
15143;DHT22;7672;50.834;6.286;2022-11-22T17:29:11;11.40;99.90
15143;DHT22;7672;50.834;6.286;2022-11-22T17:31:58;11.40;99.90
15143;DHT22;7672;50.834;6.286;2022-11-22T17:34:25;11.40;99.90
15143;DHT22;7672;50.834;6.286;2022-11-22T17:36:52;11.50;99.90
15143;DHT22;7672;50.834;6.286;2022-11-22T17:39:18;11.50;99.90
15143;DHT22;7672;50.834;6.286;2022-11-22T17:41:47;11.50;99.90
15143;DHT22;7672;50.834;6.286;2022-11-22T17:44:16;11.50;99.90
15143;DHT22;7672;50.834;6.286;2022-11-22T17:46:43;11.50;99.90
15143;DHT22;7672;50.834;6.286;2022-11-22T17:49:10;11.50;99.90
15143;DHT22;7672;50.834;6.286;2022-11-22T17:51:42;11.60;99.90
15143;DHT22;7672;50.834;6.286;2022-11-22T17:54:08;11.50;99.90
15143;DHT22;7672;50.834;6.286;2022-11-22T17:56:35;11.50;99.90
15143;DHT22;7672;50.834;6.286;2022-11-22T17:59:03;11.60;99.90
15143;DHT22;7672;50.834;6.286;2022-11-22T18:01:30;11.60;99.90
15143;DHT22;7672;50.834;6.286;2022-11-22T18:03:57;11.60;99.90
15143;DHT22;7672;50.834;6.286;2022-11-22T18:06:24;11.60;99.90
15143;DHT22;7672;50.834;6.286;2022-11-22T18:08:51;11.60;99.90
15143;DHT22;7672;50.834;6.286;2022-11-22T18:11:18;11.60;99.90
15143;DHT22;7672;50.834;6.286;2022-11-22T18:13:45;11.60;99.90
15143;DHT22;7672;50.834;6.286;2022-11-22T18:16:13;11.60;99.90
15143;DHT22;7672;50.834;6.286;2022-11-22T18:18:43;11.70;99.90
15143;DHT22;7672;50.834;6.286;2022-11-22T18:21:27;11.70;99.90
15143;DHT22;7672;50.834;6.286;2022-11-22T18:23:57;11.70;99.90
15143;DHT22;7672;50.834;6.286;2022-11-22T18:26:24;11.70;99.90
15143;DHT22;7672;50.834;6.286;2022-11-22T18:29:09;11.70;99.90
15143;DHT22;7672;50.834;6.286;2022-11-22T18:31:58;11.70;99.90
15143;DHT22;7672;50.834;6.286;2022-11-22T18:34:26;11.70;99.90
15143;DHT22;7672;50.834;6.286;2022-11-22T18:36:53;11.70;99.90
15143;DHT22;7672;50.834;6.286;2022-11-22T18:39:28;11.80;99.90
15143;DHT22;7672;50.834;6.286;2022-11-22T18:41:56;11.80;99.90
15143;DHT22;7672;50.834;6.286;2022-11-22T18:44:23;11.80;99.90
15143;DHT22;7672;50.834;6.286;2022-11-22T18:46:50;11.90;99.90
15143;DHT22;7672;50.834;6.286;2022-11-22T18:49:17;11.80;99.90
15143;DHT22;7672;50.834;6.286;2022-11-22T18:51:44;11.80;99.90
15143;DHT22;7672;50.834;6.286;2022-11-22T18:54:11;11.90;99.90
15143;DHT22;7672;50.834;6.286;2022-11-22T18:56:37;11.90;99.90